TimeEST,TemperatureF,Dew PointF,Humidity,Sea Level PressureIn,VisibilityMPH,Wind Direction,Wind SpeedMPH,Gust SpeedMPH,PrecipitationIn,Events,Conditions,WindDirDegrees,DateUTC
12:56 AM,51.1,48.0,89,29.89,10.0,Calm,Calm,-,0.00,Rain,Light Rain,0,2012-12-29 05:56:00
1:56 AM,51.1,48.9,92,29.86,6.0,Calm,Calm,-,0.02,Rain,Rain,0,2012-12-29 06:56:00
2:05 AM,51.8,48.2,88,29.85,5.0,Calm,Calm,-,0.01,Rain,Rain,0,2012-12-29 07:05:00
2:56 AM,52.0,50.0,93,29.81,7.0,Calm,Calm,-,0.03,,Overcast,0,2012-12-29 07:56:00
3:41 AM,53.6,53.6,100,29.77,4.0,South,4.6,-,0.01,Rain,Rain,170,2012-12-29 08:41:00
3:56 AM,55.0,54.0,96,29.76,2.5,Calm,Calm,-,0.05,Rain,Rain,0,2012-12-29 08:56:00
4:12 AM,55.4,53.6,94,29.75,3.0,Calm,Calm,-,0.03,Rain,Light Rain,0,2012-12-29 09:12:00
4:19 AM,55.4,53.6,94,29.74,2.5,Calm,Calm,-,0.05,Rain,Rain,0,2012-12-29 09:19:00
4:26 AM,55.4,53.6,94,29.74,1.5,Calm,Calm,-,0.12,Rain,Heavy Rain,0,2012-12-29 09:26:00
4:35 AM,55.4,53.6,94,29.72,2.0,Calm,Calm,-,0.15,Rain,Rain,0,2012-12-29 09:35:00
4:47 AM,55.4,55.4,100,29.72,1.5,SSE,3.5,-,0.26,Rain,Heavy Rain,150,2012-12-29 09:47:00
4:51 AM,55.4,55.4,100,29.71,0.8,Calm,Calm,-,0.39,Rain,Heavy Rain,0,2012-12-29 09:51:00
4:56 AM,57.0,55.0,93,29.71,0.5,Calm,Calm,-,0.46,Rain,Heavy Rain,0,2012-12-29 09:56:00
5:03 AM,55.4,55.4,100,29.71,1.2,South,4.6,-,0.01,Rain,Light Rain,180,2012-12-29 10:03:00
5:14 AM,57.2,55.4,94,29.69,2.0,South,8.1,-,0.03,Rain,Heavy Rain,190,2012-12-29 10:14:00
5:26 AM,60.8,57.2,88,29.70,6.0,SSW,12.7,20.7,0.04,Rain,Light Rain,210,2012-12-29 10:26:00
5:51 AM,62.6,60.8,94,29.72,2.5,SW,19.6,31.1,0.11,Rain,Rain,220,2012-12-29 10:51:00
5:56 AM,63.0,61.0,93,29.73,3.0,SW,20.7,31.1,0.12,Rain,Rain,220,2012-12-29 10:56:00
6:14 AM,62.6,60.8,94,29.77,10.0,NW,24.2,32.2,0.02,Rain,Light Rain,320,2012-12-29 11:14:00
6:26 AM,53.6,51.8,94,29.78,5.0,NNW,20.7,25.3,0.05,Rain,Rain,330,2012-12-29 11:26:00
6:45 AM,51.8,50.0,94,29.78,8.0,North,9.2,-,0.07,,Overcast,350,2012-12-29 11:45:00
6:56 AM,51.1,48.9,92,29.78,5.0,North,8.1,-,0.08,Rain,Light Rain,360,2012-12-29 11:56:00
7:22 AM,51.8,48.2,88,29.78,7.0,North,3.5,-,0.00,Rain,Light Rain,350,2012-12-29 12:22:00
7:56 AM,51.1,48.0,89,29.80,10.0,Calm,Calm,-,0.00,,Overcast,0,2012-12-29 12:56:00
8:19 AM,51.8,48.2,88,29.79,10.0,WNW,3.5,-,N/A,,Overcast,290,2012-12-29 13:19:00
8:56 AM,52.0,50.0,93,29.81,10.0,West,3.5,-,N/A,,Overcast,260,2012-12-29 13:56:00
9:31 AM,53.6,51.8,94,29.83,10.0,West,13.8,19.6,N/A,,Overcast,280,2012-12-29 14:31:00
9:56 AM,55.0,51.1,86,29.84,10.0,West,16.1,23.0,N/A,,Overcast,280,2012-12-29 14:56:00
10:47 AM,55.4,48.2,77,29.86,10.0,WNW,13.8,24.2,N/A,,Overcast,300,2012-12-29 15:47:00
10:56 AM,55.0,48.0,77,29.87,10.0,WNW,21.9,28.8,N/A,,Overcast,300,2012-12-29 15:56:00
11:56 AM,54.0,45.0,72,29.86,10.0,WNW,15.0,23.0,N/A,,Overcast,300,2012-12-29 16:56:00
12:51 PM,55.4,44.6,67,29.84,10.0,WNW,16.1,24.2,N/A,,Scattered Clouds,300,2012-12-29 17:51:00
12:56 PM,54.0,44.1,69,29.85,10.0,WNW,19.6,25.3,N/A,,Partly Cloudy,300,2012-12-29 17:56:00
1:19 PM,53.6,44.6,72,29.84,10.0,NW,13.8,25.3,N/A,,Mostly Cloudy,310,2012-12-29 18:19:00
1:37 PM,55.4,44.6,67,29.84,10.0,WNW,16.1,25.3,N/A,,Scattered Clouds,290,2012-12-29 18:37:00
1:56 PM,57.9,43.0,58,29.84,10.0,West,17.3,26.5,N/A,,Mostly Cloudy,270,2012-12-29 18:56:00
2:27 PM,57.2,42.8,59,29.84,10.0,West,18.4,28.8,N/A,,Partly Cloudy,280,2012-12-29 19:27:00
2:56 PM,57.0,42.1,57,29.85,10.0,WNW,16.1,24.2,N/A,,Scattered Clouds,290,2012-12-29 19:56:00
3:56 PM,54.0,39.9,59,29.87,10.0,WNW,17.3,26.5,N/A,,Partly Cloudy,300,2012-12-29 20:56:00
4:56 PM,51.1,39.0,63,29.90,10.0,WNW,17.3,25.3,N/A,,Mostly Cloudy,300,2012-12-29 21:56:00
5:56 PM,51.1,37.0,59,29.93,10.0,West,16.1,27.6,N/A,,Mostly Cloudy,280,2012-12-29 22:56:00
6:56 PM,48.0,35.1,61,29.97,10.0,WNW,18.4,27.6,N/A,,Partly Cloudy,300,2012-12-29 23:56:00
7:56 PM,46.9,33.1,59,30.01,10.0,WNW,20.7,33.4,N/A,,Overcast,290,2012-12-30 00:56:00
8:56 PM,45.0,32.0,60,30.04,10.0,WNW,17.3,29.9,N/A,,Overcast,300,2012-12-30 01:56:00
9:56 PM,45.0,30.0,56,30.06,10.0,NW,16.1,23.0,N/A,,Mostly Cloudy,310,2012-12-30 02:56:00
10:56 PM,44.1,28.9,55,30.10,10.0,WNW,16.1,26.5,N/A,,Overcast,300,2012-12-30 03:56:00
11:56 PM,43.0,28.9,58,30.12,10.0,WNW,13.8,20.7,N/A,,Clear,300,2012-12-30 04:56:00